createdAt,value
2018-12-15T00:00:24.488Z,29.40
2018-12-15T00:02:52.682Z,34.80
2018-12-15T00:05:21.097Z,31.50
2018-12-15T00:07:49.309Z,29.80
2018-12-15T00:10:17.538Z,31.70
2018-12-15T00:12:45.716Z,28.77
2018-12-15T00:15:13.917Z,30.13
2018-12-15T00:17:42.090Z,28.77
2018-12-15T00:20:10.263Z,34.20
2018-12-15T00:22:38.464Z,29.37
2018-12-15T00:25:06.637Z,29.90
2018-12-15T00:27:34.808Z,26.73
2018-12-15T00:30:03.013Z,30.10
2018-12-15T00:32:31.206Z,31.80
2018-12-15T00:34:59.383Z,29.27
2018-12-15T00:37:27.584Z,28.40
2018-12-15T00:39:55.740Z,29.73
2018-12-15T00:42:32.951Z,30.43
2018-12-15T00:45:01.167Z,27.57
2018-12-15T00:47:29.346Z,31.43
2018-12-15T00:49:57.616Z,29.03
2018-12-15T00:52:25.795Z,28.63
2018-12-15T00:54:53.973Z,30.23
2018-12-15T00:57:22.196Z,31.70
2018-12-15T00:59:50.373Z,23.90
2018-12-15T01:02:18.543Z,31.07
2018-12-15T01:04:46.760Z,31.33
2018-12-15T01:07:14.937Z,28.57
2018-12-15T01:09:43.108Z,26.97
2018-12-15T01:12:11.390Z,27.27
2018-12-15T01:14:39.567Z,31.37
2018-12-15T01:17:07.741Z,27.90
2018-12-15T01:19:35.941Z,31.63
2018-12-15T01:22:04.118Z,30.73
2018-12-15T01:24:32.301Z,27.30
2018-12-15T01:27:00.490Z,29.60
2018-12-15T01:29:28.662Z,30.47
2018-12-15T01:31:57.008Z,25.50
2018-12-15T01:34:25.216Z,27.90
2018-12-15T01:36:53.386Z,31.03
2018-12-15T01:39:21.561Z,29.60
2018-12-15T01:41:49.751Z,29.27
2018-12-15T01:44:17.932Z,25.53
2018-12-15T01:46:46.145Z,32.27
2018-12-15T01:49:14.372Z,25.60
2018-12-15T01:51:42.587Z,27.60
2018-12-15T01:54:10.760Z,22.47
2018-12-15T01:56:38.996Z,23.10
2018-12-15T01:59:07.184Z,20.57
2018-12-15T02:01:35.451Z,20.53
2018-12-15T02:04:03.674Z,19.60
2018-12-15T02:06:31.848Z,27.00
2018-12-15T02:09:00.020Z,20.30
2018-12-15T02:11:28.241Z,19.53
2018-12-15T02:13:56.431Z,17.83
2018-12-15T02:16:24.662Z,18.73
2018-12-15T02:18:52.860Z,21.60
2018-12-15T02:21:21.034Z,20.53
2018-12-15T02:23:49.222Z,23.40
2018-12-15T02:26:17.548Z,22.47
2018-12-15T02:28:45.728Z,18.37
2018-12-15T02:31:14.007Z,22.70
2018-12-15T02:33:42.202Z,22.13
2018-12-15T02:36:10.377Z,18.87
2018-12-15T02:38:38.697Z,23.37
2018-12-15T02:41:06.924Z,21.30
2018-12-15T02:43:35.100Z,23.53
2018-12-15T02:46:03.411Z,21.63
2018-12-15T02:48:31.624Z,22.90
2018-12-15T02:50:59.808Z,21.57
2018-12-15T02:53:28.087Z,21.03
2018-12-15T02:55:56.335Z,22.23
2018-12-15T02:58:24.626Z,22.47
2018-12-15T03:00:52.807Z,24.53
2018-12-15T03:03:21.012Z,28.60
2018-12-15T03:05:49.185Z,23.17
2018-12-15T03:08:17.358Z,23.37
2018-12-15T03:10:45.555Z,20.37
2018-12-15T03:13:13.750Z,20.67
2018-12-15T03:15:41.940Z,22.90
2018-12-15T03:18:10.134Z,20.07
2018-12-15T03:20:38.323Z,28.17
2018-12-15T03:23:06.502Z,25.10
2018-12-15T03:25:34.712Z,22.23
2018-12-15T03:28:03.021Z,23.40
2018-12-15T03:30:31.199Z,21.87
2018-12-15T03:32:59.398Z,23.87
2018-12-15T03:35:27.579Z,23.50
2018-12-15T03:37:55.762Z,24.73
2018-12-15T03:40:23.983Z,22.80
2018-12-15T03:42:52.163Z,24.03
2018-12-15T03:45:20.423Z,26.07
2018-12-15T03:47:55.890Z,28.43
2018-12-15T03:50:18.883Z,29.63
2018-12-15T03:52:47.247Z,27.30
2018-12-15T03:55:15.458Z,29.73
2018-12-15T03:57:43.651Z,32.10
2018-12-15T04:00:11.848Z,25.13
2018-12-15T04:02:40.042Z,28.57
2018-12-15T04:05:08.219Z,26.60
2018-12-15T04:07:36.399Z,30.53
2018-12-15T04:10:05.306Z,23.63
2018-12-15T04:12:33.503Z,26.90
2018-12-15T04:15:01.697Z,25.20
2018-12-15T04:17:29.901Z,30.77
2018-12-15T04:19:58.096Z,27.00
2018-12-15T04:22:26.274Z,30.20
2018-12-15T04:24:54.525Z,27.47
2018-12-15T04:27:22.700Z,25.93
2018-12-15T04:29:50.893Z,28.83
2018-12-15T04:32:19.206Z,27.23
2018-12-15T04:34:47.395Z,26.20
2018-12-15T04:37:15.571Z,25.73
2018-12-15T04:39:43.878Z,30.33
2018-12-15T04:42:12.061Z,25.03
2018-12-15T04:44:40.236Z,24.50
2018-12-15T04:47:08.741Z,32.93
2018-12-15T04:49:36.922Z,31.43
2018-12-15T04:52:05.122Z,30.30
2018-12-15T04:54:33.336Z,28.63
2018-12-15T04:57:01.533Z,31.77
2018-12-15T04:59:29.709Z,26.73
2018-12-15T05:01:57.928Z,33.40
2018-12-15T05:04:26.100Z,36.37
2018-12-15T05:06:54.306Z,31.87
2018-12-15T05:09:22.512Z,29.83
2018-12-15T05:11:50.705Z,35.90
2018-12-15T05:14:18.900Z,38.50
2018-12-15T05:16:47.106Z,37.77
2018-12-15T05:19:15.294Z,38.07
2018-12-15T05:21:43.473Z,32.03
2018-12-15T05:24:11.681Z,30.80
2018-12-15T05:26:39.905Z,34.27
2018-12-15T05:29:08.092Z,37.67
2018-12-15T05:31:36.292Z,35.43
2018-12-15T05:34:04.478Z,40.50
2018-12-15T05:36:32.669Z,30.30
2018-12-15T05:39:01.042Z,35.07
2018-12-15T05:41:29.229Z,40.67
2018-12-15T05:43:57.435Z,38.27
2018-12-15T05:46:25.665Z,38.63
2018-12-15T05:48:53.853Z,30.13
2018-12-15T05:51:22.048Z,35.60
2018-12-15T05:53:50.257Z,38.97
2018-12-15T05:56:18.516Z,37.30
2018-12-15T05:58:46.708Z,39.77
2018-12-15T06:01:14.914Z,36.33
2018-12-15T06:03:43.097Z,36.00
2018-12-15T06:06:11.347Z,34.10
2018-12-15T06:08:39.691Z,40.07
2018-12-15T06:11:07.870Z,41.30
2018-12-15T06:13:36.040Z,38.20
2018-12-15T06:16:04.255Z,40.20
2018-12-15T06:18:32.458Z,41.30
2018-12-15T06:21:00.711Z,37.37
2018-12-15T06:23:28.930Z,36.23
2018-12-15T06:25:57.164Z,41.43
2018-12-15T06:28:25.418Z,35.77
2018-12-15T06:30:53.620Z,40.60
2018-12-15T06:33:21.806Z,38.63
2018-12-15T06:35:49.986Z,36.10
2018-12-15T06:38:18.296Z,36.13
2018-12-15T06:40:46.574Z,38.67
2018-12-15T06:43:14.806Z,41.70
2018-12-15T06:45:43.429Z,32.33
2018-12-15T06:48:11.701Z,39.83
2018-12-15T06:50:39.886Z,39.67
2018-12-15T06:53:08.078Z,36.07
2018-12-15T06:55:36.271Z,35.33
2018-12-15T06:58:04.462Z,39.80
2018-12-15T07:00:32.682Z,36.23
2018-12-15T07:03:00.875Z,37.50
2018-12-15T07:05:29.061Z,38.20
2018-12-15T07:07:57.274Z,44.73
2018-12-15T07:10:25.465Z,40.07
2018-12-15T07:12:53.684Z,41.20
2018-12-15T07:15:21.912Z,38.63
2018-12-15T07:17:50.099Z,34.70
2018-12-15T07:20:18.282Z,35.23
2018-12-15T07:22:46.484Z,38.00
2018-12-15T07:25:14.672Z,35.33
2018-12-15T07:27:42.868Z,40.63
2018-12-15T07:30:11.071Z,36.67
2018-12-15T07:32:39.246Z,41.20
2018-12-15T07:35:07.424Z,41.87
2018-12-15T07:37:35.633Z,38.30
2018-12-15T07:40:03.808Z,38.10
2018-12-15T07:42:32.637Z,41.93
2018-12-15T07:45:00.862Z,34.63
2018-12-15T07:47:29.119Z,41.30
2018-12-15T07:49:57.294Z,39.37
2018-12-15T07:52:25.620Z,41.90
2018-12-15T07:54:54.103Z,44.23
2018-12-15T07:57:22.281Z,38.43
2018-12-15T07:59:50.543Z,41.80
2018-12-15T08:02:18.717Z,37.23
2018-12-15T08:04:46.899Z,37.97
2018-12-15T08:07:15.373Z,40.57
2018-12-15T08:09:43.910Z,39.70
2018-12-15T08:12:17.817Z,38.10
2018-12-15T08:14:46.099Z,41.90
2018-12-15T08:17:14.283Z,41.37
2018-12-15T08:19:42.598Z,44.00
2018-12-15T08:22:10.769Z,41.80
2018-12-15T08:24:39.076Z,41.03
2018-12-15T08:27:07.410Z,39.03
2018-12-15T08:29:35.653Z,40.50
2018-12-15T08:32:03.828Z,39.17
2018-12-15T08:34:32.035Z,41.67
2018-12-15T08:37:00.213Z,38.73
2018-12-15T08:39:28.394Z,38.77
2018-12-15T08:41:56.589Z,37.77
2018-12-15T08:44:24.770Z,39.13
2018-12-15T08:46:53.298Z,34.40
2018-12-15T08:49:21.542Z,38.87
2018-12-15T08:51:49.718Z,46.90
2018-12-15T08:54:17.915Z,40.63
2018-12-15T08:56:46.136Z,35.33
2018-12-15T08:59:14.315Z,38.33
2018-12-15T09:01:42.507Z,36.90
2018-12-15T09:04:10.711Z,36.70
2018-12-15T09:06:39.187Z,34.87
2018-12-15T09:09:07.358Z,33.20
2018-12-15T09:11:35.564Z,33.40
2018-12-15T09:14:03.758Z,33.50
2018-12-15T09:16:31.969Z,34.37
2018-12-15T09:19:00.363Z,32.90
2018-12-15T09:21:28.664Z,33.87
2018-12-15T09:23:56.833Z,34.80
2018-12-15T09:26:25.041Z,34.33
2018-12-15T09:28:53.279Z,32.00
2018-12-15T09:31:21.562Z,34.83
2018-12-15T09:33:49.779Z,37.40
2018-12-15T09:36:17.964Z,34.93
2018-12-15T09:38:46.148Z,37.40
2018-12-15T09:41:14.340Z,33.07
2018-12-15T09:43:42.520Z,34.40
2018-12-15T09:46:10.702Z,32.40
2018-12-15T09:48:38.917Z,32.37
2018-12-15T09:51:07.093Z,31.60
2018-12-15T09:53:35.261Z,26.30
2018-12-15T09:56:03.448Z,33.97
2018-12-15T09:58:31.627Z,32.10
2018-12-15T10:00:59.807Z,31.23
2018-12-15T10:03:28.006Z,33.77
2018-12-15T10:05:56.195Z,28.13
2018-12-15T10:08:24.489Z,29.80
2018-12-15T10:10:52.690Z,35.20
2018-12-15T10:13:20.932Z,29.00
2018-12-15T10:15:49.106Z,41.53
2018-12-15T10:18:17.333Z,35.23
2018-12-15T10:20:45.505Z,33.73
2018-12-15T10:23:13.710Z,33.77
2018-12-15T10:25:41.903Z,28.40
2018-12-15T10:28:10.252Z,30.80
2018-12-15T10:30:44.117Z,31.73
2018-12-15T10:33:12.315Z,31.93
2018-12-15T10:35:40.493Z,26.47
2018-12-15T10:38:08.810Z,26.43
2018-12-15T10:40:36.988Z,25.93
2018-12-15T10:43:05.164Z,26.33
2018-12-15T10:45:33.412Z,27.33
2018-12-15T10:48:01.586Z,33.40
2018-12-15T10:50:29.760Z,30.20
2018-12-15T10:52:57.986Z,25.77
2018-12-15T10:55:26.315Z,24.17
2018-12-15T10:57:54.493Z,24.57
2018-12-15T11:00:26.553Z,25.43
2018-12-15T11:02:55.133Z,23.97
2018-12-15T11:05:24.637Z,12.13
2018-12-15T11:07:52.845Z,9.20
2018-12-15T11:10:21.117Z,18.20
2018-12-15T11:12:49.317Z,14.53
2018-12-15T11:15:17.592Z,15.40
2018-12-15T11:17:45.866Z,11.30
2018-12-15T11:20:14.130Z,9.57
2018-12-15T11:22:42.325Z,9.07
2018-12-15T11:25:10.505Z,9.00
2018-12-15T11:27:38.756Z,7.90
2018-12-15T11:30:06.950Z,8.60
2018-12-15T11:32:35.129Z,8.73
2018-12-15T11:35:05.316Z,9.00
2018-12-15T11:37:33.629Z,9.23
2018-12-15T11:40:01.798Z,9.93
2018-12-15T11:42:29.992Z,9.40
2018-12-15T11:44:58.223Z,11.70
2018-12-15T11:47:26.396Z,8.33
2018-12-15T11:49:54.570Z,8.80
2018-12-15T11:52:22.828Z,8.57
2018-12-15T11:54:51.124Z,9.00
2018-12-15T11:57:19.299Z,8.50
2018-12-15T11:59:47.596Z,9.00
2018-12-15T12:02:15.879Z,11.33
2018-12-15T12:04:44.070Z,8.23
2018-12-15T12:07:12.280Z,9.10
2018-12-15T12:09:40.485Z,9.90
2018-12-15T12:12:08.662Z,10.10
2018-12-15T12:14:36.922Z,8.57
2018-12-15T12:17:05.098Z,9.20
2018-12-15T12:19:33.353Z,9.13
2018-12-15T12:22:01.554Z,11.27
2018-12-15T12:24:29.750Z,8.60
2018-12-15T12:26:58.181Z,7.97
2018-12-15T12:29:26.389Z,8.33
2018-12-15T12:31:54.553Z,8.83
2018-12-15T12:34:22.728Z,8.83
2018-12-15T12:36:50.933Z,9.70
2018-12-15T12:39:19.121Z,9.73
2018-12-15T12:41:47.308Z,8.60
2018-12-15T12:44:15.532Z,7.97
2018-12-15T12:46:43.762Z,9.50
2018-12-15T12:49:11.936Z,8.33
2018-12-15T12:51:40.141Z,8.30
2018-12-15T12:54:08.460Z,8.93
2018-12-15T12:56:36.670Z,11.13
2018-12-15T12:59:04.882Z,8.97
2018-12-15T13:01:34.326Z,7.87
2018-12-15T13:04:02.666Z,8.23
2018-12-15T13:06:30.913Z,8.57
2018-12-15T13:08:59.098Z,9.00
2018-12-15T13:11:27.286Z,10.20
2018-12-15T13:13:55.476Z,9.00
2018-12-15T13:16:23.812Z,8.17
2018-12-15T13:18:51.990Z,9.20
2018-12-15T13:21:20.223Z,10.27
2018-12-15T13:23:48.407Z,11.40
2018-12-15T13:26:16.594Z,9.00
2018-12-15T13:28:44.930Z,9.77
2018-12-15T13:31:13.101Z,10.60
2018-12-15T13:33:41.274Z,8.80
2018-12-15T13:36:13.344Z,10.10
2018-12-15T13:38:41.792Z,8.43
2018-12-15T13:41:09.964Z,9.43
2018-12-15T13:43:38.159Z,9.20
2018-12-15T13:46:06.339Z,11.33
2018-12-15T13:48:34.514Z,9.90
2018-12-15T13:51:02.708Z,9.07
2018-12-15T13:53:30.961Z,9.27
2018-12-15T13:55:59.245Z,14.53
2018-12-15T13:58:27.459Z,9.63
2018-12-15T14:00:55.636Z,7.90
2018-12-15T14:03:23.922Z,7.70
2018-12-15T14:05:52.125Z,9.27
2018-12-15T14:08:20.297Z,8.97
2018-12-15T14:10:48.469Z,9.07
2018-12-15T14:13:16.666Z,9.53
2018-12-15T14:15:44.839Z,10.60
2018-12-15T14:18:13.100Z,8.60
2018-12-15T14:20:41.459Z,12.17
2018-12-15T14:23:09.630Z,11.10
2018-12-15T14:25:37.848Z,9.33
2018-12-15T14:28:06.040Z,13.20
2018-12-15T14:30:34.204Z,9.37
2018-12-15T14:33:02.362Z,10.57
2018-12-15T14:35:30.753Z,12.40
2018-12-15T14:37:58.908Z,7.30
2018-12-15T14:40:27.080Z,12.90
2018-12-15T14:42:55.263Z,9.90
2018-12-15T14:45:23.420Z,8.63
2018-12-15T14:47:51.599Z,10.40
2018-12-15T14:50:23.417Z,7.53
2018-12-15T14:52:50.216Z,9.27
2018-12-15T14:55:18.403Z,14.17
2018-12-15T14:57:46.611Z,10.10
2018-12-15T15:00:14.779Z,9.03
2018-12-15T15:02:42.963Z,12.43
2018-12-15T15:05:11.162Z,9.87
2018-12-15T15:07:39.323Z,8.30
2018-12-15T15:10:07.515Z,7.90
2018-12-15T15:12:35.710Z,10.30
2018-12-15T15:15:05.267Z,10.37
2018-12-15T15:17:33.512Z,11.60
2018-12-15T15:20:01.735Z,10.60
2018-12-15T15:22:29.921Z,11.00
2018-12-15T15:24:58.329Z,13.10
2018-12-15T15:27:26.542Z,8.43
2018-12-15T15:29:54.836Z,9.00
2018-12-15T15:32:23.012Z,11.67
2018-12-15T15:34:51.219Z,12.60
2018-12-15T15:37:19.409Z,12.33
2018-12-15T15:39:47.679Z,7.93
2018-12-15T15:42:15.901Z,9.63
2018-12-15T15:44:44.064Z,9.17
2018-12-15T15:47:12.249Z,10.37
2018-12-15T15:49:40.565Z,11.93
2018-12-15T15:52:08.872Z,10.43
2018-12-15T15:54:37.061Z,9.40
2018-12-15T15:57:05.274Z,10.73
2018-12-15T15:59:33.442Z,10.83
2018-12-15T16:02:01.612Z,13.60
2018-12-15T16:04:29.807Z,12.47
2018-12-15T16:06:58.097Z,10.47
2018-12-15T16:09:26.273Z,8.03
2018-12-15T16:11:54.497Z,10.53
2018-12-15T16:14:22.669Z,14.63
2018-12-15T16:16:50.858Z,7.50
2018-12-15T16:19:19.055Z,10.40
2018-12-15T16:21:47.239Z,12.60
2018-12-15T16:24:15.405Z,9.80
2018-12-15T16:26:43.739Z,8.57
2018-12-15T16:29:11.924Z,9.40
2018-12-15T16:31:40.287Z,10.13
2018-12-15T16:34:08.493Z,10.57
2018-12-15T16:36:36.711Z,11.00
2018-12-15T16:39:06.773Z,15.70
2018-12-15T16:41:34.966Z,13.20
2018-12-15T16:44:03.137Z,12.60
2018-12-15T16:46:31.458Z,9.53
2018-12-15T16:48:59.944Z,11.90
2018-12-15T16:51:28.225Z,8.83
2018-12-15T16:53:56.397Z,9.30
2018-12-15T16:56:24.593Z,10.57
2018-12-15T16:58:52.771Z,12.97
2018-12-15T17:01:20.957Z,10.80
2018-12-15T17:03:49.264Z,9.80
2018-12-15T17:06:17.456Z,13.97
2018-12-15T17:08:45.644Z,10.90
2018-12-15T17:11:13.925Z,8.13
2018-12-15T17:13:42.110Z,10.67
2018-12-15T17:16:10.277Z,10.60
2018-12-15T17:18:38.479Z,11.50
2018-12-15T17:21:06.664Z,15.00
2018-12-15T17:23:34.849Z,7.60
2018-12-15T17:26:03.072Z,8.63
2018-12-15T17:28:31.397Z,9.50
2018-12-15T17:30:59.812Z,8.50
2018-12-15T17:33:28.003Z,9.60
2018-12-15T17:35:56.181Z,7.97
2018-12-15T17:38:24.355Z,8.17
2018-12-15T17:40:52.568Z,9.60
2018-12-15T17:43:20.744Z,9.57
2018-12-15T17:45:48.948Z,13.60
2018-12-15T17:48:17.157Z,10.57
2018-12-15T17:50:45.429Z,12.00
2018-12-15T17:53:13.599Z,8.97
2018-12-15T17:55:41.804Z,11.20
2018-12-15T17:58:14.702Z,11.30
2018-12-15T18:00:40.175Z,13.33
2018-12-15T18:03:08.378Z,9.77
2018-12-15T18:05:36.548Z,11.20
2018-12-15T18:08:04.731Z,8.67
2018-12-15T18:10:33.791Z,9.73
2018-12-15T18:13:02.069Z,8.33
2018-12-15T18:15:30.304Z,9.60
2018-12-15T18:17:58.525Z,7.17
2018-12-15T18:20:26.801Z,11.67
2018-12-15T18:22:54.996Z,9.37
2018-12-15T18:25:23.173Z,8.77
2018-12-15T18:27:51.369Z,11.07
2018-12-15T18:30:19.651Z,11.33
2018-12-15T18:32:47.854Z,10.27
2018-12-15T18:35:16.068Z,11.67
2018-12-15T18:37:44.242Z,10.97
2018-12-15T18:40:12.446Z,10.13
2018-12-15T18:42:40.643Z,10.77
2018-12-15T18:45:09.703Z,11.47
2018-12-15T18:47:37.955Z,9.03
2018-12-15T18:50:08.592Z,11.73
2018-12-15T18:52:36.963Z,7.40
2018-12-15T18:55:05.191Z,9.30
2018-12-15T18:57:33.373Z,7.90
2018-12-15T19:00:01.548Z,7.97
2018-12-15T19:05:04.776Z,9.00
2018-12-15T19:07:33.015Z,10.57
2018-12-15T19:10:01.265Z,11.10
2018-12-15T19:12:29.442Z,12.07
2018-12-15T19:14:57.718Z,12.57
2018-12-15T19:17:25.890Z,13.00
2018-12-15T19:19:54.216Z,14.53
2018-12-15T19:22:22.416Z,7.37
2018-12-15T19:24:50.628Z,10.57
2018-12-15T19:27:18.803Z,10.80
2018-12-15T19:29:47.004Z,11.00
2018-12-15T19:32:15.289Z,10.63
2018-12-15T19:34:43.516Z,10.77
2018-12-15T19:37:11.701Z,8.60
2018-12-15T19:39:39.890Z,11.40
2018-12-15T19:42:08.072Z,7.10
2018-12-15T19:44:36.276Z,10.20
2018-12-15T19:47:04.446Z,10.13
2018-12-15T19:49:32.627Z,10.13
2018-12-15T19:52:00.838Z,11.20
2018-12-15T19:54:29.015Z,9.10
2018-12-15T19:56:57.200Z,8.67
2018-12-15T19:59:25.383Z,9.70
2018-12-15T20:01:53.581Z,10.50
2018-12-15T20:04:21.766Z,12.90
2018-12-15T20:06:49.958Z,7.70
2018-12-15T20:09:18.146Z,9.53
2018-12-15T20:11:46.460Z,8.27
2018-12-15T20:14:14.742Z,10.67
2018-12-15T20:16:42.923Z,10.83
2018-12-15T20:19:11.100Z,13.77
2018-12-15T20:21:39.319Z,10.70
2018-12-15T20:24:07.640Z,10.50
2018-12-15T20:26:35.907Z,14.60
2018-12-15T20:29:04.226Z,9.20
2018-12-15T20:31:32.636Z,13.10
2018-12-15T20:34:00.816Z,12.97
2018-12-15T20:36:29.005Z,8.50
2018-12-15T20:38:57.176Z,11.40
2018-12-15T20:41:25.406Z,13.33
2018-12-15T20:43:53.632Z,10.90
2018-12-15T20:46:21.814Z,14.00
2018-12-15T20:48:49.988Z,14.27
2018-12-15T20:51:18.256Z,13.57
2018-12-15T20:53:46.440Z,22.20
2018-12-15T20:56:14.686Z,14.23
2018-12-15T20:58:42.975Z,11.43
2018-12-15T21:01:11.146Z,14.57
2018-12-15T21:03:39.332Z,15.20
2018-12-15T21:06:07.534Z,13.10
2018-12-15T21:08:35.736Z,10.80
2018-12-15T21:11:04.202Z,14.77
2018-12-15T21:13:32.393Z,12.30
2018-12-15T21:16:00.651Z,13.87
2018-12-15T21:18:28.804Z,14.27
2018-12-15T21:20:57.002Z,18.17
2018-12-15T21:23:25.179Z,18.00
2018-12-15T21:25:53.373Z,16.20
2018-12-15T21:28:21.577Z,13.53
2018-12-15T21:30:49.778Z,13.67
2018-12-15T21:33:17.970Z,14.10
2018-12-15T21:35:46.192Z,46.93
2018-12-15T21:38:14.383Z,32.40
2018-12-15T21:40:42.571Z,23.97
2018-12-15T21:43:10.777Z,18.33
2018-12-15T21:45:38.984Z,20.70
2018-12-15T21:48:07.168Z,17.33
2018-12-15T21:50:35.370Z,17.93
2018-12-15T21:53:03.568Z,24.33
2018-12-15T21:55:31.763Z,34.87
2018-12-15T21:57:59.976Z,32.47
2018-12-15T22:00:28.562Z,31.07
2018-12-15T22:02:56.764Z,28.57
2018-12-15T22:05:25.200Z,31.90
2018-12-15T22:07:53.378Z,33.37
2018-12-15T22:10:21.756Z,33.60
2018-12-15T22:12:49.958Z,33.87
2018-12-15T22:15:18.133Z,38.60
2018-12-15T22:17:46.316Z,33.83
2018-12-15T22:20:15.013Z,39.80
2018-12-15T22:22:43.194Z,39.33
2018-12-15T22:25:11.394Z,44.57
2018-12-15T22:27:39.604Z,36.90
2018-12-15T22:30:08.307Z,39.50
2018-12-15T22:32:36.483Z,38.03
2018-12-15T22:35:05.351Z,41.50
2018-12-15T22:37:33.544Z,41.67
2018-12-15T22:40:01.725Z,40.30
2018-12-15T22:42:29.932Z,42.57
2018-12-15T22:44:58.173Z,38.73
2018-12-15T22:47:26.365Z,41.37
2018-12-15T22:49:54.572Z,40.73
2018-12-15T22:52:22.778Z,46.57
2018-12-15T22:54:50.985Z,43.17
2018-12-15T22:57:19.272Z,42.30
2018-12-15T22:59:47.448Z,36.97
2018-12-15T23:02:15.660Z,45.50
2018-12-15T23:04:44.230Z,42.00
2018-12-15T23:07:12.494Z,40.57
2018-12-15T23:09:40.700Z,40.20
2018-12-15T23:12:08.919Z,38.03
2018-12-15T23:14:37.107Z,38.17
2018-12-15T23:17:06.488Z,39.83
2018-12-15T23:19:34.711Z,37.97
2018-12-15T23:22:02.890Z,37.80
2018-12-15T23:24:31.075Z,42.63
2018-12-15T23:26:59.312Z,33.27
2018-12-15T23:29:27.501Z,32.33
2018-12-15T23:31:55.684Z,35.77
2018-12-15T23:34:24.014Z,42.73
2018-12-15T23:36:52.436Z,37.77
2018-12-15T23:39:20.740Z,46.77
2018-12-15T23:41:48.954Z,43.20
2018-12-15T23:44:17.269Z,43.97
2018-12-15T23:46:45.576Z,45.27
2018-12-15T23:49:13.927Z,44.10
2018-12-15T23:51:42.103Z,34.23
2018-12-15T23:54:10.281Z,38.03
2018-12-15T23:56:38.503Z,33.33
2018-12-15T23:59:07.087Z,39.63
